Allegre, Kentucky
Current Conditions -  °F | °C
As of 5:58 PM on Thursday 18 Dec 2014 (Local Time) from KHOP Reporting Station
Overcast Overcast  
Wind Chill: 35°   Ceiling: 4900
Heat Index: 35°   Visibility: 10mi
Dew Point: 29°   Wind: 3mph
Humidity: 80%   Direction: 40°NE
Pressure: 30.22"   Gusts: NA
Location:  36.93°N, 87.22°W
Report Text: KHOP 182358Z AUTO 04003KT 10SM FEW039 OVC049 01/M02 A3022 RMK AO2 SLP240 T00141017 10016 20009 50004
Loading
Personal Weather Stations






























Interactive Weather Map New forecast layout! Learn more

10-Day Weather Forecast

Advertisements
Track Severe Weather on mobile